PWSweather.com
Personal Weather Stations
Station Observations
RW002
Arlington, VA 22207

Arlington, VA 22207

Lat: 38.8955, Lon: -77.1443

Elevation: 390

Station Type: Davis Vantage Pro II

jp_angelone@msn.com

High Low Average
Temperature 72.1°F22.3°C 66.4°F19.1°C 69.5°F20.8°C
Dew Point 65.8°F18.8°C 63.0°F17.2°C 64.6°F18.1°C
Winds 3.0 mph 4.8 kmh Calm Calm Calm SECalm SE
Wind Gusts 7.0 mph11.3 kmh -- 1.0 mph1.6 kmh
Humidity 92% 78% 85%
Pressure 30.25 in1024.4 mb 30.14 in1020.7 mb -
Precipitation 0.15 in3.8 mm - -
Hour Temp Dew Point Humidity Winds Wind Gusts Pressure Precip Precip Rate Daily Precip Total
12:02 AM 72.1°F22.3°C 65.2°F18.4°C 79% Calm Calm -- 30.20 in1022.7 mb 0.00 in0.0 mm 0.00 in0.0 mm 0.00 in0.0 mm
12:07 AM 72.0°F22.2°C 65.1°F18.4°C 79% Calm Calm 2.0 mph3.2 kmh 30.20 in1022.7 mb 0.00 in0.0 mm 0.00 in0.0 mm 0.00 in0.0 mm
12:12 AM 71.9°F22.2°C 65.0°F18.3°C 79% Calm Calm 4.0 mph6.4 kmh 30.20 in1022.7 mb 0.00 in0.0 mm 0.00 in0.0 mm 0.00 in0.0 mm
12:17 AM 71.8°F22.1°C 64.9°F18.3°C 79% Calm Calm -- 30.20 in1022.7 mb 0.00 in0.0 mm 0.00 in0.0 mm 0.00 in0.0 mm
12:22 AM 71.7°F22.1°C 64.8°F18.2°C 79% Calm Calm -- 30.20 in1022.7 mb 0.00 in0.0 mm 0.00 in0.0 mm 0.00 in0.0 mm
12:27 AM 71.7°F22.1°C 64.8°F18.2°C 79% Calm Calm -- 30.20 in1022.7 mb 0.00 in0.0 mm 0.00 in0.0 mm 0.00 in0.0 mm
12:32 AM 71.5°F21.9°C 64.6°F18.1°C 79% Calm Calm -- 30.20 in1022.7 mb 0.00 in0.0 mm 0.00 in0.0 mm 0.00 in0.0 mm
12:37 AM 71.5°F21.9°C 65.0°F18.3°C 80% Calm Calm 2.0 mph3.2 kmh 30.20 in1022.7 mb 0.00 in0.0 mm 0.00 in0.0 mm 0.00 in0.0 mm
12:42 AM 71.4°F21.9°C 64.9°F18.3°C 80% Calm Calm -- 30.20 in1022.7 mb 0.00 in0.0 mm 0.00 in0.0 mm 0.00 in0.0 mm
12:47 AM 71.3°F21.8°C 64.8°F18.2°C 80% Calm Calm -- 30.20 in1022.7 mb 0.00 in0.0 mm 0.00 in0.0 mm 0.00 in0.0 mm
12:52 AM 71.2°F21.8°C 64.7°F18.2°C 80% Calm Calm -- 30.20 in1022.7 mb 0.00 in0.0 mm 0.00 in0.0 mm 0.00 in0.0 mm
12:57 AM 71.1°F21.7°C 64.6°F18.1°C 80% Calm Calm -- 30.20 in1022.7 mb 0.00 in0.0 mm 0.00 in0.0 mm 0.00 in0.0 mm
01:02 AM 71.0°F21.7°C 64.5°F18.1°C 80% Calm Calm -- 30.21 in1023.0 mb 0.00 in0.0 mm 0.00 in0.0 mm 0.00 in0.0 mm
01:07 AM 70.9°F21.6°C 64.4°F18.0°C 80% Calm Calm -- 30.20 in1022.7 mb 0.00 in0.0 mm 0.00 in0.0 mm 0.00 in0.0 mm
01:12 AM 70.9°F21.6°C 64.4°F18.0°C 80% Calm Calm -- 30.21 in1023.0 mb 0.00 in0.0 mm 0.00 in0.0 mm 0.00 in0.0 mm
01:17 AM 70.9°F21.6°C 64.4°F18.0°C 80% Calm Calm -- 30.21 in1023.0 mb 0.00 in0.0 mm 0.00 in0.0 mm 0.00 in0.0 mm
01:22 AM 70.8°F21.6°C 64.3°F17.9°C 80% Calm Calm -- 30.21 in1023.0 mb 0.00 in0.0 mm 0.00 in0.0 mm 0.00 in0.0 mm
01:27 AM 70.8°F21.6°C 64.3°F17.9°C 80% Calm Calm -- 30.21 in1023.0 mb 0.00 in0.0 mm 0.00 in0.0 mm 0.00 in0.0 mm
01:32 AM 70.8°F21.6°C 64.3°F17.9°C 80% Calm Calm -- 30.20 in1022.7 mb 0.00 in0.0 mm 0.00 in0.0 mm 0.00 in0.0 mm
01:37 AM 70.8°F21.6°C 64.3°F17.9°C 80% Calm Calm -- 30.20 in1022.7 mb 0.00 in0.0 mm 0.00 in0.0 mm 0.00 in0.0 mm
01:42 AM 70.7°F21.5°C 64.2°F17.9°C 80% Calm Calm -- 30.20 in1022.7 mb 0.00 in0.0 mm 0.00 in0.0 mm 0.00 in0.0 mm
01:47 AM 70.7°F21.5°C 64.2°F17.9°C 80% Calm Calm -- 30.20 in1022.7 mb 0.00 in0.0 mm 0.00 in0.0 mm 0.00 in0.0 mm
01:52 AM 70.6°F21.4°C 63.8°F17.7°C 79% Calm Calm -- 30.20 in1022.7 mb 0.00 in0.0 mm 0.00 in0.0 mm 0.00 in0.0 mm
01:57 AM 70.6°F21.4°C 63.8°F17.7°C 79% Calm Calm -- 30.20 in1022.7 mb 0.00 in0.0 mm 0.00 in0.0 mm 0.00 in0.0 mm
02:02 AM 70.6°F21.4°C 64.1°F17.8°C 80% Calm Calm -- 30.19 in1022.4 mb 0.00 in0.0 mm 0.00 in0.0 mm 0.00 in0.0 mm
02:07 AM 70.6°F21.4°C 64.1°F17.8°C 80% Calm Calm -- 30.20 in1022.7 mb 0.00 in0.0 mm 0.00 in0.0 mm 0.00 in0.0 mm
02:12 AM 70.6°F21.4°C 64.1°F17.8°C 80% Calm Calm -- 30.20 in1022.7 mb 0.00 in0.0 mm 0.00 in0.0 mm 0.00 in0.0 mm
02:17 AM 70.6°F21.4°C 64.1°F17.8°C 80% Calm Calm -- 30.20 in1022.7 mb 0.00 in0.0 mm 0.00 in0.0 mm 0.00 in0.0 mm
02:22 AM 70.6°F21.4°C 64.1°F17.8°C 80% Calm Calm -- 30.20 in1022.7 mb 0.00 in0.0 mm 0.00 in0.0 mm 0.00 in0.0 mm
02:27 AM 70.6°F21.4°C 64.1°F17.8°C 80% Calm Calm -- 30.20 in1022.7 mb 0.00 in0.0 mm 0.00 in0.0 mm 0.00 in0.0 mm
02:32 AM 70.6°F21.4°C 64.5°F18.1°C 81% Calm Calm -- 30.20 in1022.7 mb 0.00 in0.0 mm 0.00 in0.0 mm 0.00 in0.0 mm
02:37 AM 70.6°F21.4°C 64.5°F18.1°C 81% Calm Calm -- 30.20 in1022.7 mb 0.00 in0.0 mm 0.00 in0.0 mm 0.00 in0.0 mm
02:42 AM 70.6°F21.4°C 64.5°F18.1°C 81% Calm Calm -- 30.20 in1022.7 mb 0.00 in0.0 mm 0.00 in0.0 mm 0.00 in0.0 mm
02:47 AM 70.6°F21.4°C 64.1°F17.8°C 80% Calm Calm 1.0 mph1.6 kmh 30.20 in1022.7 mb 0.00 in0.0 mm 0.00 in0.0 mm 0.00 in0.0 mm
02:52 AM 70.6°F21.4°C 64.1°F17.8°C 80% Calm Calm -- 30.20 in1022.7 mb 0.00 in0.0 mm 0.00 in0.0 mm 0.00 in0.0 mm
02:57 AM 70.6°F21.4°C 64.1°F17.8°C 80% Calm Calm -- 30.19 in1022.4 mb 0.00 in0.0 mm 0.00 in0.0 mm 0.00 in0.0 mm
03:02 AM 70.6°F21.4°C 63.8°F17.7°C 79% Calm Calm 2.0 mph3.2 kmh 30.20 in1022.7 mb 0.00 in0.0 mm 0.00 in0.0 mm 0.00 in0.0 mm
03:07 AM 70.6°F21.4°C 63.8°F17.7°C 79% 1.0 mph E1.6 kmh E 3.0 mph4.8 kmh 30.20 in1022.7 mb 0.00 in0.0 mm 0.00 in0.0 mm 0.00 in0.0 mm
03:12 AM 70.5°F21.4°C 63.7°F17.6°C 79% Calm Calm -- 30.20 in1022.7 mb 0.00 in0.0 mm 0.00 in0.0 mm 0.00 in0.0 mm
03:17 AM 70.5°F21.4°C 63.7°F17.6°C 79% Calm Calm -- 30.20 in1022.7 mb 0.00 in0.0 mm 0.00 in0.0 mm 0.00 in0.0 mm
03:22 AM 70.5°F21.4°C 63.7°F17.6°C 79% Calm Calm 3.0 mph4.8 kmh 30.20 in1022.7 mb 0.00 in0.0 mm 0.00 in0.0 mm 0.00 in0.0 mm
03:27 AM 70.4°F21.3°C 63.2°F17.3°C 78% Calm Calm -- 30.20 in1022.7 mb 0.00 in0.0 mm 0.00 in0.0 mm 0.00 in0.0 mm
03:32 AM 70.4°F21.3°C 63.2°F17.3°C 78% Calm Calm 1.0 mph1.6 kmh 30.20 in1022.7 mb 0.00 in0.0 mm 0.00 in0.0 mm 0.00 in0.0 mm
03:37 AM 70.4°F21.3°C 63.2°F17.3°C 78% 1.0 mph E1.6 kmh E 1.0 mph1.6 kmh 30.20 in1022.7 mb 0.00 in0.0 mm 0.00 in0.0 mm 0.00 in0.0 mm
03:42 AM 70.4°F21.3°C 63.6°F17.6°C 79% Calm Calm 3.0 mph4.8 kmh 30.19 in1022.4 mb 0.00 in0.0 mm 0.00 in0.0 mm 0.00 in0.0 mm
03:47 AM 70.4°F21.3°C 63.6°F17.6°C 79% Calm Calm 3.0 mph4.8 kmh 30.19 in1022.4 mb 0.00 in0.0 mm 0.00 in0.0 mm 0.00 in0.0 mm
03:52 AM 70.4°F21.3°C 63.6°F17.6°C 79% Calm Calm 3.0 mph4.8 kmh 30.19 in1022.4 mb 0.00 in0.0 mm 0.00 in0.0 mm 0.00 in0.0 mm
03:57 AM 70.3°F21.3°C 63.5°F17.5°C 79% Calm Calm 1.0 mph1.6 kmh 30.19 in1022.4 mb 0.00 in0.0 mm 0.00 in0.0 mm 0.00 in0.0 mm
04:02 AM 70.4°F21.3°C 63.9°F17.7°C 80% Calm Calm 2.0 mph3.2 kmh 30.20 in1022.7 mb 0.00 in0.0 mm 0.00 in0.0 mm 0.00 in0.0 mm
04:07 AM 70.3°F21.3°C 63.8°F17.7°C 80% Calm Calm -- 30.20 in1022.7 mb 0.00 in0.0 mm 0.00 in0.0 mm 0.00 in0.0 mm
04:12 AM 70.3°F21.3°C 63.8°F17.7°C 80% Calm Calm -- 30.20 in1022.7 mb 0.00 in0.0 mm 0.00 in0.0 mm 0.00 in0.0 mm
04:17 AM 70.3°F21.3°C 63.8°F17.7°C 80% Calm Calm -- 30.20 in1022.7 mb 0.00 in0.0 mm 0.00 in0.0 mm 0.00 in0.0 mm
04:22 AM 70.3°F21.3°C 63.8°F17.7°C 80% Calm Calm -- 30.20 in1022.7 mb 0.00 in0.0 mm 0.00 in0.0 mm 0.00 in0.0 mm
04:27 AM 70.3°F21.3°C 63.8°F17.7°C 80% Calm Calm -- 30.20 in1022.7 mb 0.00 in0.0 mm 0.00 in0.0 mm 0.00 in0.0 mm
04:32 AM 70.3°F21.3°C 63.8°F17.7°C 80% Calm Calm -- 30.20 in1022.7 mb 0.00 in0.0 mm 0.00 in0.0 mm 0.00 in0.0 mm
04:37 AM 70.3°F21.3°C 63.8°F17.7°C 80% Calm Calm 3.0 mph4.8 kmh 30.20 in1022.7 mb 0.00 in0.0 mm 0.00 in0.0 mm 0.00 in0.0 mm
04:42 AM 70.3°F21.3°C 63.8°F17.7°C 80% Calm Calm 1.0 mph1.6 kmh 30.20 in1022.7 mb 0.00 in0.0 mm 0.00 in0.0 mm 0.00 in0.0 mm
04:47 AM 70.3°F21.3°C 63.8°F17.7°C 80% Calm Calm -- 30.20 in1022.7 mb 0.00 in0.0 mm 0.00 in0.0 mm 0.00 in0.0 mm
04:52 AM 70.3°F21.3°C 63.8°F17.7°C 80% Calm Calm -- 30.20 in1022.7 mb 0.00 in0.0 mm 0.00 in0.0 mm 0.00 in0.0 mm
04:57 AM 70.3°F21.3°C 63.8°F17.7°C 80% Calm Calm -- 30.20 in1022.7 mb 0.00 in0.0 mm 0.00 in0.0 mm 0.00 in0.0 mm
05:02 AM 70.3°F21.3°C 63.8°F17.7°C 80% Calm Calm -- 30.20 in1022.7 mb 0.00 in0.0 mm 0.00 in0.0 mm 0.00 in0.0 mm
05:07 AM 70.3°F21.3°C 63.8°F17.7°C 80% Calm Calm -- 30.20 in1022.7 mb 0.00 in0.0 mm 0.00 in0.0 mm 0.00 in0.0 mm
05:12 AM 70.3°F21.3°C 63.8°F17.7°C 80% Calm Calm -- 30.20 in1022.7 mb 0.00 in0.0 mm 0.00 in0.0 mm 0.00 in0.0 mm
05:17 AM 70.3°F21.3°C 63.5°F17.5°C 79% 2.0 mph SSE3.2 kmh SSE 2.0 mph3.2 kmh 30.20 in1022.7 mb 0.00 in0.0 mm 0.00 in0.0 mm 0.00 in0.0 mm
05:22 AM 70.2°F21.2°C 63.0°F17.2°C 78% 1.0 mph S1.6 kmh S 1.0 mph1.6 kmh 30.21 in1023.0 mb 0.00 in0.0 mm 0.00 in0.0 mm 0.00 in0.0 mm
05:27 AM 70.3°F21.3°C 63.1°F17.3°C 78% Calm Calm 3.0 mph4.8 kmh 30.21 in1023.0 mb 0.00 in0.0 mm 0.00 in0.0 mm 0.00 in0.0 mm
05:32 AM 70.3°F21.3°C 63.1°F17.3°C 78% Calm Calm 3.0 mph4.8 kmh 30.20 in1022.7 mb 0.00 in0.0 mm 0.00 in0.0 mm 0.00 in0.0 mm
05:37 AM 70.3°F21.3°C 63.5°F17.5°C 79% Calm Calm 1.0 mph1.6 kmh 30.20 in1022.7 mb 0.00 in0.0 mm 0.00 in0.0 mm 0.00 in0.0 mm
05:42 AM 70.3°F21.3°C 63.5°F17.5°C 79% Calm Calm -- 30.20 in1022.7 mb 0.00 in0.0 mm 0.00 in0.0 mm 0.00 in0.0 mm
05:47 AM 70.3°F21.3°C 63.8°F17.7°C 80% Calm Calm -- 30.21 in1023.0 mb 0.00 in0.0 mm 0.00 in0.0 mm 0.00 in0.0 mm
05:52 AM 70.3°F21.3°C 63.8°F17.7°C 80% Calm Calm -- 30.21 in1023.0 mb 0.00 in0.0 mm 0.00 in0.0 mm 0.00 in0.0 mm
05:57 AM 70.3°F21.3°C 63.8°F17.7°C 80% Calm Calm -- 30.21 in1023.0 mb 0.00 in0.0 mm 0.00 in0.0 mm 0.00 in0.0 mm
06:02 AM 70.2°F21.2°C 63.7°F17.6°C 80% Calm Calm 2.0 mph3.2 kmh 30.21 in1023.0 mb 0.00 in0.0 mm 0.00 in0.0 mm 0.00 in0.0 mm
06:07 AM 70.2°F21.2°C 64.1°F17.8°C 81% Calm Calm 3.0 mph4.8 kmh 30.21 in1023.0 mb 0.00 in0.0 mm 0.00 in0.0 mm 0.00 in0.0 mm
06:12 AM 70.2°F21.2°C 64.1°F17.8°C 81% Calm Calm -- 30.21 in1023.0 mb 0.00 in0.0 mm 0.00 in0.0 mm 0.00 in0.0 mm
06:17 AM 70.2°F21.2°C 64.1°F17.8°C 81% Calm Calm 2.0 mph3.2 kmh 30.21 in1023.0 mb 0.00 in0.0 mm 0.00 in0.0 mm 0.00 in0.0 mm
06:22 AM 70.1°F21.2°C 64.0°F17.8°C 81% Calm Calm 3.0 mph4.8 kmh 30.21 in1023.0 mb 0.00 in0.0 mm 0.00 in0.0 mm 0.00 in0.0 mm
06:27 AM 70.2°F21.2°C 64.1°F17.8°C 81% Calm Calm -- 30.22 in1023.4 mb 0.00 in0.0 mm 0.00 in0.0 mm 0.00 in0.0 mm
06:32 AM 70.2°F21.2°C 64.4°F18.0°C 82% Calm Calm -- 30.22 in1023.4 mb 0.00 in0.0 mm 0.00 in0.0 mm 0.00 in0.0 mm
06:37 AM 70.2°F21.2°C 64.4°F18.0°C 82% Calm Calm -- 30.22 in1023.4 mb 0.00 in0.0 mm 0.00 in0.0 mm 0.00 in0.0 mm
06:42 AM 70.2°F21.2°C 64.8°F18.2°C 83% Calm Calm -- 30.22 in1023.4 mb 0.00 in0.0 mm 0.00 in0.0 mm 0.00 in0.0 mm
06:47 AM 70.3°F21.3°C 64.9°F18.3°C 83% Calm Calm 1.0 mph1.6 kmh 30.22 in1023.4 mb 0.00 in0.0 mm 0.00 in0.0 mm 0.00 in0.0 mm
06:52 AM 70.3°F21.3°C 64.9°F18.3°C 83% Calm Calm -- 30.22 in1023.4 mb 0.00 in0.0 mm 0.00 in0.0 mm 0.00 in0.0 mm
06:57 AM 70.2°F21.2°C 64.8°F18.2°C 83% 2.0 mph ESE3.2 kmh ESE 3.0 mph4.8 kmh 30.22 in1023.4 mb 0.00 in0.0 mm 0.00 in0.0 mm 0.00 in0.0 mm
07:02 AM 70.1°F21.2°C 64.7°F18.2°C 83% Calm Calm 4.0 mph6.4 kmh 30.22 in1023.4 mb 0.00 in0.0 mm 0.00 in0.0 mm 0.00 in0.0 mm
07:07 AM 70.0°F21.1°C 64.6°F18.1°C 83% Calm Calm -- 30.21 in1023.0 mb 0.00 in0.0 mm 0.00 in0.0 mm 0.00 in0.0 mm
07:12 AM 70.1°F21.2°C 64.7°F18.2°C 83% Calm Calm -- 30.22 in1023.4 mb 0.00 in0.0 mm 0.00 in0.0 mm 0.00 in0.0 mm
07:17 AM 70.2°F21.2°C 64.8°F18.2°C 83% Calm Calm 2.0 mph3.2 kmh 30.22 in1023.4 mb 0.00 in0.0 mm 0.00 in0.0 mm 0.00 in0.0 mm
07:22 AM 70.1°F21.2°C 64.3°F17.9°C 82% Calm Calm 5.0 mph8.0 kmh 30.22 in1023.4 mb 0.00 in0.0 mm 0.00 in0.0 mm 0.00 in0.0 mm
07:27 AM 70.0°F21.1°C 64.6°F18.1°C 83% Calm Calm 6.0 mph9.7 kmh 30.22 in1023.4 mb 0.00 in0.0 mm 0.00 in0.0 mm 0.00 in0.0 mm
07:32 AM 69.9°F21.1°C 64.5°F18.1°C 83% Calm Calm -- 30.22 in1023.4 mb 0.00 in0.0 mm 0.00 in0.0 mm 0.00 in0.0 mm
07:37 AM 70.0°F21.1°C 64.9°F18.3°C 84% Calm Calm -- 30.22 in1023.4 mb 0.00 in0.0 mm 0.00 in0.0 mm 0.00 in0.0 mm
07:42 AM 69.9°F21.1°C 65.2°F18.4°C 85% 1.0 mph E1.6 kmh E 5.0 mph8.0 kmh 30.22 in1023.4 mb 0.00 in0.0 mm 0.00 in0.0 mm 0.00 in0.0 mm
07:47 AM 69.7°F20.9°C 65.0°F18.3°C 85% Calm Calm 2.0 mph3.2 kmh 30.22 in1023.4 mb 0.00 in0.0 mm 0.00 in0.0 mm 0.00 in0.0 mm
07:52 AM 69.5°F20.8°C 65.1°F18.4°C 86% Calm Calm -- 30.22 in1023.4 mb 0.00 in0.0 mm 0.00 in0.0 mm 0.00 in0.0 mm
07:57 AM 69.3°F20.7°C 64.9°F18.3°C 86% Calm Calm 2.0 mph3.2 kmh 30.23 in1023.7 mb 0.00 in0.0 mm 0.00 in0.0 mm 0.00 in0.0 mm
08:02 AM 69.2°F20.7°C 64.8°F18.2°C 86% Calm Calm 7.0 mph11.3 kmh 30.23 in1023.7 mb 0.00 in0.0 mm 0.00 in0.0 mm 0.00 in0.0 mm
08:07 AM 69.2°F20.7°C 64.8°F18.2°C 86% Calm Calm -- 30.24 in1024.0 mb 0.00 in0.0 mm 0.00 in0.0 mm 0.00 in0.0 mm
08:12 AM 69.1°F20.6°C 64.7°F18.2°C 86% Calm Calm -- 30.24 in1024.0 mb 0.00 in0.0 mm 0.00 in0.0 mm 0.00 in0.0 mm
08:17 AM 69.1°F20.6°C 64.7°F18.2°C 86% Calm Calm 2.0 mph3.2 kmh 30.23 in1023.7 mb 0.00 in0.0 mm 0.00 in0.0 mm 0.00 in0.0 mm
08:22 AM 69.1°F20.6°C 65.1°F18.4°C 87% Calm Calm -- 30.23 in1023.7 mb 0.00 in0.0 mm 0.00 in0.0 mm 0.01 in0.3 mm
08:27 AM 69.0°F20.6°C 65.3°F18.5°C 88% Calm Calm 1.0 mph1.6 kmh 30.23 in1023.7 mb 0.07 in1.8 mm 0.84 in21.3 mm 0.01 in0.3 mm
08:32 AM 68.8°F20.4°C 65.1°F18.4°C 88% Calm Calm 3.0 mph4.8 kmh 30.23 in1023.7 mb 0.12 in3.0 mm 0.60 in15.2 mm 0.02 in0.5 mm
08:37 AM 68.5°F20.3°C 65.1°F18.4°C 89% Calm Calm 1.0 mph1.6 kmh 30.23 in1023.7 mb 0.13 in3.3 mm 0.12 in3.0 mm 0.03 in0.8 mm
08:42 AM 68.3°F20.2°C 65.2°F18.4°C 90% Calm Calm 1.0 mph1.6 kmh 30.23 in1023.7 mb 0.09 in2.3 mm 0.00 in0.0 mm 0.04 in1.0 mm
08:47 AM 67.9°F19.9°C 64.9°F18.3°C 90% Calm Calm -- 30.24 in1024.0 mb 0.05 in1.3 mm 0.00 in0.0 mm 0.04 in1.0 mm
08:52 AM 67.8°F19.9°C 64.8°F18.2°C 90% Calm Calm -- 30.24 in1024.0 mb 0.04 in1.0 mm 0.00 in0.0 mm 0.04 in1.0 mm
08:57 AM 67.7°F19.8°C 65.0°F18.3°C 91% 1.0 mph ESE1.6 kmh ESE 2.0 mph3.2 kmh 30.24 in1024.0 mb 0.04 in1.0 mm 0.00 in0.0 mm 0.05 in1.3 mm
09:02 AM 67.4°F19.7°C 64.7°F18.2°C 91% Calm Calm 1.0 mph1.6 kmh 30.24 in1024.0 mb 0.08 in2.0 mm 0.04 in1.0 mm 0.06 in1.5 mm
09:07 AM 67.2°F19.6°C 64.5°F18.1°C 91% Calm Calm -- 30.24 in1024.0 mb 0.07 in1.8 mm 0.00 in0.0 mm 0.06 in1.5 mm
09:12 AM 67.0°F19.4°C 64.3°F17.9°C 91% Calm Calm -- 30.24 in1024.0 mb 0.04 in1.0 mm 0.00 in0.0 mm 0.06 in1.5 mm
09:17 AM 66.9°F19.4°C 64.2°F17.9°C 91% Calm Calm -- 30.24 in1024.0 mb 0.00 in0.0 mm 0.00 in0.0 mm 0.06 in1.5 mm
09:22 AM 66.8°F19.3°C 64.1°F17.8°C 91% Calm Calm -- 30.24 in1024.0 mb 0.00 in0.0 mm 0.00 in0.0 mm 0.06 in1.5 mm
09:27 AM 66.9°F19.4°C 64.2°F17.9°C 91% Calm Calm -- 30.24 in1024.0 mb 0.00 in0.0 mm 0.00 in0.0 mm 0.06 in1.5 mm
09:32 AM 66.9°F19.4°C 64.2°F17.9°C 91% Calm Calm -- 30.24 in1024.0 mb 0.00 in0.0 mm 0.00 in0.0 mm 0.06 in1.5 mm
09:37 AM 67.0°F19.4°C 64.3°F17.9°C 91% Calm Calm -- 30.24 in1024.0 mb 0.00 in0.0 mm 0.00 in0.0 mm 0.06 in1.5 mm
09:42 AM 67.1°F19.5°C 64.7°F18.2°C 92% Calm Calm -- 30.24 in1024.0 mb 0.00 in0.0 mm 0.00 in0.0 mm 0.06 in1.5 mm
09:47 AM 67.2°F19.6°C 64.8°F18.2°C 92% Calm Calm -- 30.24 in1024.0 mb 0.00 in0.0 mm 0.00 in0.0 mm 0.06 in1.5 mm
09:52 AM 67.3°F19.6°C 64.9°F18.3°C 92% Calm Calm -- 30.25 in1024.4 mb 0.00 in0.0 mm 0.00 in0.0 mm 0.06 in1.5 mm
09:57 AM 67.3°F19.6°C 64.9°F18.3°C 92% Calm Calm -- 30.25 in1024.4 mb 0.00 in0.0 mm 0.00 in0.0 mm 0.07 in1.8 mm
10:02 AM 67.3°F19.6°C 64.9°F18.3°C 92% Calm Calm -- 30.25 in1024.4 mb 0.13 in3.3 mm 0.14 in3.6 mm 0.08 in2.0 mm
10:07 AM 67.3°F19.6°C 64.9°F18.3°C 92% Calm Calm -- 30.25 in1024.4 mb 0.17 in4.3 mm 0.48 in12.2 mm 0.09 in2.3 mm
10:12 AM 67.4°F19.7°C 65.0°F18.3°C 92% Calm Calm -- 30.24 in1024.0 mb 0.14 in3.6 mm 0.00 in0.0 mm 0.10 in2.5 mm
10:17 AM 67.4°F19.7°C 65.0°F18.3°C 92% Calm Calm -- 30.24 in1024.0 mb 0.21 in5.3 mm 0.84 in21.3 mm 0.12 in3.0 mm
10:22 AM 67.4°F19.7°C 65.0°F18.3°C 92% Calm Calm 2.0 mph3.2 kmh 30.24 in1024.0 mb 0.10 in2.5 mm 0.00 in0.0 mm 0.12 in3.0 mm
10:27 AM 67.4°F19.7°C 65.0°F18.3°C 92% Calm Calm -- 30.24 in1024.0 mb 0.10 in2.5 mm 0.00 in0.0 mm 0.13 in3.3 mm
10:32 AM 67.4°F19.7°C 65.0°F18.3°C 92% Calm Calm -- 30.24 in1024.0 mb 0.10 in2.5 mm 0.00 in0.0 mm 0.14 in3.6 mm
10:37 AM 67.5°F19.7°C 65.1°F18.4°C 92% Calm Calm 1.0 mph1.6 kmh 30.24 in1024.0 mb 0.06 in1.5 mm 0.00 in0.0 mm 0.14 in3.6 mm
10:42 AM 67.3°F19.6°C 64.9°F18.3°C 92% Calm Calm 4.0 mph6.4 kmh 30.24 in1024.0 mb 0.04 in1.0 mm 0.00 in0.0 mm 0.14 in3.6 mm
10:47 AM 67.1°F19.5°C 64.7°F18.2°C 92% 2.0 mph E3.2 kmh E 5.0 mph8.0 kmh 30.23 in1023.7 mb 0.00 in0.0 mm 0.00 in0.0 mm 0.14 in3.6 mm
10:52 AM 66.7°F19.3°C 64.3°F17.9°C 92% Calm Calm 1.0 mph1.6 kmh 30.24 in1024.0 mb 0.00 in0.0 mm 0.00 in0.0 mm 0.14 in3.6 mm
10:57 AM 66.5°F19.2°C 64.1°F17.8°C 92% Calm Calm 1.0 mph1.6 kmh 30.24 in1024.0 mb 0.00 in0.0 mm 0.00 in0.0 mm 0.14 in3.6 mm
11:02 AM 66.6°F19.2°C 64.2°F17.9°C 92% Calm Calm -- 30.23 in1023.7 mb 0.00 in0.0 mm 0.00 in0.0 mm 0.14 in3.6 mm
11:07 AM 66.6°F19.2°C 64.2°F17.9°C 92% Calm Calm 1.0 mph1.6 kmh 30.23 in1023.7 mb 0.00 in0.0 mm 0.00 in0.0 mm 0.15 in3.8 mm
11:12 AM 66.5°F19.2°C 64.1°F17.8°C 92% Calm Calm -- 30.23 in1023.7 mb 0.00 in0.0 mm 0.00 in0.0 mm 0.15 in3.8 mm
11:17 AM 66.4°F19.1°C 64.0°F17.8°C 92% Calm Calm -- 30.23 in1023.7 mb 0.00 in0.0 mm 0.00 in0.0 mm 0.15 in3.8 mm
11:22 AM 66.5°F19.2°C 64.1°F17.8°C 92% Calm Calm -- 30.23 in1023.7 mb 0.00 in0.0 mm 0.00 in0.0 mm 0.15 in3.8 mm
11:27 AM 66.5°F19.2°C 63.8°F17.7°C 91% Calm Calm -- 30.23 in1023.7 mb 0.00 in0.0 mm 0.00 in0.0 mm 0.15 in3.8 mm
11:32 AM 66.6°F19.2°C 63.9°F17.7°C 91% Calm Calm 1.0 mph1.6 kmh 30.23 in1023.7 mb 0.00 in0.0 mm 0.00 in0.0 mm 0.15 in3.8 mm
11:37 AM 66.7°F19.3°C 64.0°F17.8°C 91% Calm Calm 2.0 mph3.2 kmh 30.23 in1023.7 mb 0.00 in0.0 mm 0.00 in0.0 mm 0.15 in3.8 mm
11:42 AM 66.8°F19.3°C 64.1°F17.8°C 91% Calm Calm 3.0 mph4.8 kmh 30.23 in1023.7 mb 0.00 in0.0 mm 0.00 in0.0 mm 0.15 in3.8 mm
11:47 AM 66.8°F19.3°C 64.1°F17.8°C 91% Calm Calm 1.0 mph1.6 kmh 30.23 in1023.7 mb 0.00 in0.0 mm 0.00 in0.0 mm 0.15 in3.8 mm
11:52 AM 66.8°F19.3°C 64.1°F17.8°C 91% Calm Calm 6.0 mph9.7 kmh 30.23 in1023.7 mb 0.00 in0.0 mm 0.00 in0.0 mm 0.15 in3.8 mm
11:57 AM 66.8°F19.3°C 64.1°F17.8°C 91% 1.0 mph E1.6 kmh E 2.0 mph3.2 kmh 30.23 in1023.7 mb 0.00 in0.0 mm 0.00 in0.0 mm 0.15 in3.8 mm
12:02 PM 66.9°F19.4°C 64.2°F17.9°C 91% Calm Calm 3.0 mph4.8 kmh 30.23 in1023.7 mb 0.00 in0.0 mm 0.00 in0.0 mm 0.15 in3.8 mm
12:07 PM 67.2°F19.6°C 64.5°F18.1°C 91% 1.0 mph SSE1.6 kmh SSE 2.0 mph3.2 kmh 30.22 in1023.4 mb 0.00 in0.0 mm 0.00 in0.0 mm 0.15 in3.8 mm
12:12 PM 67.2°F19.6°C 64.5°F18.1°C 91% Calm Calm -- 30.22 in1023.4 mb 0.00 in0.0 mm 0.00 in0.0 mm 0.15 in3.8 mm
12:17 PM 67.1°F19.5°C 64.4°F18.0°C 91% Calm Calm -- 30.22 in1023.4 mb 0.00 in0.0 mm 0.00 in0.0 mm 0.15 in3.8 mm
12:22 PM 67.0°F19.4°C 64.3°F17.9°C 91% Calm Calm 1.0 mph1.6 kmh 30.22 in1023.4 mb 0.00 in0.0 mm 0.00 in0.0 mm 0.15 in3.8 mm
12:27 PM 67.1°F19.5°C 64.4°F18.0°C 91% Calm Calm 2.0 mph3.2 kmh 30.22 in1023.4 mb 0.00 in0.0 mm 0.00 in0.0 mm 0.15 in3.8 mm
12:32 PM 67.2°F19.6°C 64.5°F18.1°C 91% Calm Calm 3.0 mph4.8 kmh 30.21 in1023.0 mb 0.00 in0.0 mm 0.00 in0.0 mm 0.15 in3.8 mm
12:37 PM 67.2°F19.6°C 64.2°F17.9°C 90% Calm Calm 1.0 mph1.6 kmh 30.21 in1023.0 mb 0.00 in0.0 mm 0.00 in0.0 mm 0.15 in3.8 mm
12:42 PM 67.3°F19.6°C 64.6°F18.1°C 91% Calm Calm -- 30.21 in1023.0 mb 0.00 in0.0 mm 0.00 in0.0 mm 0.15 in3.8 mm
12:47 PM 67.5°F19.7°C 64.8°F18.2°C 91% Calm Calm -- 30.21 in1023.0 mb 0.00 in0.0 mm 0.00 in0.0 mm 0.15 in3.8 mm
12:52 PM 67.6°F19.8°C 64.9°F18.3°C 91% Calm Calm 1.0 mph1.6 kmh 30.20 in1022.7 mb 0.00 in0.0 mm 0.00 in0.0 mm 0.15 in3.8 mm
12:57 PM 67.6°F19.8°C 64.9°F18.3°C 91% Calm Calm -- 30.20 in1022.7 mb 0.00 in0.0 mm 0.00 in0.0 mm 0.15 in3.8 mm
01:02 PM 67.6°F19.8°C 64.9°F18.3°C 91% Calm Calm 1.0 mph1.6 kmh 30.20 in1022.7 mb 0.00 in0.0 mm 0.00 in0.0 mm 0.15 in3.8 mm
01:07 PM 67.6°F19.8°C 64.9°F18.3°C 91% Calm Calm -- 30.20 in1022.7 mb 0.00 in0.0 mm 0.00 in0.0 mm 0.15 in3.8 mm
01:12 PM 67.7°F19.8°C 65.0°F18.3°C 91% Calm Calm 1.0 mph1.6 kmh 30.19 in1022.4 mb 0.00 in0.0 mm 0.00 in0.0 mm 0.15 in3.8 mm
01:17 PM 67.6°F19.8°C 64.9°F18.3°C 91% Calm Calm -- 30.19 in1022.4 mb 0.00 in0.0 mm 0.00 in0.0 mm 0.15 in3.8 mm
01:22 PM 67.6°F19.8°C 64.6°F18.1°C 90% Calm Calm -- 30.19 in1022.4 mb 0.00 in0.0 mm 0.00 in0.0 mm 0.15 in3.8 mm
01:27 PM 67.6°F19.8°C 64.6°F18.1°C 90% Calm Calm -- 30.19 in1022.4 mb 0.00 in0.0 mm 0.00 in0.0 mm 0.15 in3.8 mm
01:32 PM 67.7°F19.8°C 64.7°F18.2°C 90% Calm Calm -- 30.19 in1022.4 mb 0.00 in0.0 mm 0.00 in0.0 mm 0.15 in3.8 mm
01:37 PM 67.9°F19.9°C 64.9°F18.3°C 90% Calm Calm -- 30.19 in1022.4 mb 0.00 in0.0 mm 0.00 in0.0 mm 0.15 in3.8 mm
01:42 PM 68.1°F20.1°C 65.0°F18.3°C 90% Calm Calm -- 30.19 in1022.4 mb 0.00 in0.0 mm 0.00 in0.0 mm 0.15 in3.8 mm
01:47 PM 68.3°F20.2°C 64.9°F18.3°C 89% Calm Calm 3.0 mph4.8 kmh 30.18 in1022.0 mb 0.00 in0.0 mm 0.00 in0.0 mm 0.15 in3.8 mm
01:52 PM 68.3°F20.2°C 64.9°F18.3°C 89% 3.0 mph E4.8 kmh E 5.0 mph8.0 kmh 30.18 in1022.0 mb 0.00 in0.0 mm 0.00 in0.0 mm 0.15 in3.8 mm
01:57 PM 68.6°F20.3°C 65.2°F18.4°C 89% Calm Calm 5.0 mph8.0 kmh 30.18 in1022.0 mb 0.00 in0.0 mm 0.00 in0.0 mm 0.15 in3.8 mm
02:02 PM 68.7°F20.4°C 65.0°F18.3°C 88% Calm Calm -- 30.17 in1021.7 mb 0.00 in0.0 mm 0.00 in0.0 mm 0.15 in3.8 mm
02:07 PM 69.0°F20.6°C 65.3°F18.5°C 88% Calm Calm 1.0 mph1.6 kmh 30.17 in1021.7 mb 0.00 in0.0 mm 0.00 in0.0 mm 0.15 in3.8 mm
02:12 PM 69.2°F20.7°C 65.2°F18.4°C 87% Calm Calm 3.0 mph4.8 kmh 30.17 in1021.7 mb 0.00 in0.0 mm 0.00 in0.0 mm 0.15 in3.8 mm
02:17 PM 69.4°F20.8°C 65.0°F18.3°C 86% Calm Calm -- 30.17 in1021.7 mb 0.00 in0.0 mm 0.00 in0.0 mm 0.15 in3.8 mm
02:22 PM 69.5°F20.8°C 65.1°F18.4°C 86% Calm Calm 3.0 mph4.8 kmh 30.17 in1021.7 mb 0.00 in0.0 mm 0.00 in0.0 mm 0.15 in3.8 mm
02:27 PM 69.7°F20.9°C 65.3°F18.5°C 86% Calm Calm -- 30.17 in1021.7 mb 0.00 in0.0 mm 0.00 in0.0 mm 0.15 in3.8 mm
02:32 PM 70.0°F21.1°C 65.3°F18.5°C 85% Calm Calm 2.0 mph3.2 kmh 30.17 in1021.7 mb 0.00 in0.0 mm 0.00 in0.0 mm 0.15 in3.8 mm
02:37 PM 70.3°F21.3°C 65.6°F18.7°C 85% Calm Calm 1.0 mph1.6 kmh 30.17 in1021.7 mb 0.00 in0.0 mm 0.00 in0.0 mm 0.15 in3.8 mm
02:42 PM 70.4°F21.3°C 65.3°F18.5°C 84% Calm Calm 1.0 mph1.6 kmh 30.17 in1021.7 mb 0.00 in0.0 mm 0.00 in0.0 mm 0.15 in3.8 mm
02:47 PM 70.4°F21.3°C 65.0°F18.3°C 83% Calm Calm 2.0 mph3.2 kmh 30.16 in1021.3 mb 0.00 in0.0 mm 0.00 in0.0 mm 0.15 in3.8 mm
02:52 PM 70.2°F21.2°C 65.1°F18.4°C 84% Calm Calm 2.0 mph3.2 kmh 30.16 in1021.3 mb 0.00 in0.0 mm 0.00 in0.0 mm 0.15 in3.8 mm
02:57 PM 70.1°F21.2°C 65.0°F18.3°C 84% Calm Calm 4.0 mph6.4 kmh 30.16 in1021.3 mb 0.00 in0.0 mm 0.00 in0.0 mm 0.15 in3.8 mm
03:02 PM 70.1°F21.2°C 65.0°F18.3°C 84% Calm Calm -- 30.16 in1021.3 mb 0.00 in0.0 mm 0.00 in0.0 mm 0.15 in3.8 mm
03:07 PM 70.2°F21.2°C 65.1°F18.4°C 84% Calm Calm 3.0 mph4.8 kmh 30.16 in1021.3 mb 0.00 in0.0 mm 0.00 in0.0 mm 0.15 in3.8 mm
03:12 PM 70.3°F21.3°C 65.2°F18.4°C 84% 2.0 mph E3.2 kmh E 5.0 mph8.0 kmh 30.16 in1021.3 mb 0.00 in0.0 mm 0.00 in0.0 mm 0.15 in3.8 mm
03:17 PM 70.3°F21.3°C 65.2°F18.4°C 84% Calm Calm 2.0 mph3.2 kmh 30.16 in1021.3 mb 0.00 in0.0 mm 0.00 in0.0 mm 0.15 in3.8 mm
03:22 PM 70.4°F21.3°C 65.3°F18.5°C 84% Calm Calm -- 30.16 in1021.3 mb 0.00 in0.0 mm 0.00 in0.0 mm 0.15 in3.8 mm
03:27 PM 70.3°F21.3°C 65.2°F18.4°C 84% Calm Calm -- 30.16 in1021.3 mb 0.00 in0.0 mm 0.00 in0.0 mm 0.15 in3.8 mm
03:32 PM 70.3°F21.3°C 65.2°F18.4°C 84% Calm Calm 3.0 mph4.8 kmh 30.16 in1021.3 mb 0.00 in0.0 mm 0.00 in0.0 mm 0.15 in3.8 mm
03:37 PM 70.3°F21.3°C 65.2°F18.4°C 84% Calm Calm -- 30.16 in1021.3 mb 0.00 in0.0 mm 0.00 in0.0 mm 0.15 in3.8 mm
03:42 PM 70.3°F21.3°C 65.2°F18.4°C 84% Calm Calm -- 30.16 in1021.3 mb 0.00 in0.0 mm 0.00 in0.0 mm 0.15 in3.8 mm
03:47 PM 70.2°F21.2°C 65.1°F18.4°C 84% Calm Calm 3.0 mph4.8 kmh 30.16 in1021.3 mb 0.00 in0.0 mm 0.00 in0.0 mm 0.15 in3.8 mm
03:52 PM 70.2°F21.2°C 65.5°F18.6°C 85% Calm Calm -- 30.16 in1021.3 mb 0.00 in0.0 mm 0.00 in0.0 mm 0.15 in3.8 mm
03:57 PM 70.3°F21.3°C 65.6°F18.7°C 85% Calm Calm -- 30.15 in1021.0 mb 0.00 in0.0 mm 0.00 in0.0 mm 0.15 in3.8 mm
04:02 PM 70.3°F21.3°C 65.6°F18.7°C 85% Calm Calm -- 30.15 in1021.0 mb 0.00 in0.0 mm 0.00 in0.0 mm 0.15 in3.8 mm
04:07 PM 70.3°F21.3°C 65.2°F18.4°C 84% Calm Calm 1.0 mph1.6 kmh 30.15 in1021.0 mb 0.00 in0.0 mm 0.00 in0.0 mm 0.15 in3.8 mm
04:12 PM 70.3°F21.3°C 65.6°F18.7°C 85% Calm Calm -- 30.15 in1021.0 mb 0.00 in0.0 mm 0.00 in0.0 mm 0.15 in3.8 mm
04:17 PM 70.3°F21.3°C 65.2°F18.4°C 84% Calm Calm 1.0 mph1.6 kmh 30.15 in1021.0 mb 0.00 in0.0 mm 0.00 in0.0 mm 0.15 in3.8 mm
04:22 PM 70.3°F21.3°C 65.6°F18.7°C 85% Calm Calm -- 30.15 in1021.0 mb 0.00 in0.0 mm 0.00 in0.0 mm 0.15 in3.8 mm
04:27 PM 70.3°F21.3°C 65.6°F18.7°C 85% Calm Calm -- 30.15 in1021.0 mb 0.00 in0.0 mm 0.00 in0.0 mm 0.15 in3.8 mm
04:32 PM 70.4°F21.3°C 65.7°F18.7°C 85% Calm Calm 1.0 mph1.6 kmh 30.15 in1021.0 mb 0.00 in0.0 mm 0.00 in0.0 mm 0.15 in3.8 mm
04:37 PM 70.4°F21.3°C 65.3°F18.5°C 84% Calm Calm -- 30.15 in1021.0 mb 0.00 in0.0 mm 0.00 in0.0 mm 0.15 in3.8 mm
04:42 PM 70.4°F21.3°C 65.3°F18.5°C 84% Calm Calm 1.0 mph1.6 kmh 30.15 in1021.0 mb 0.00 in0.0 mm 0.00 in0.0 mm 0.15 in3.8 mm
04:47 PM 70.4°F21.3°C 65.3°F18.5°C 84% Calm Calm -- 30.15 in1021.0 mb 0.00 in0.0 mm 0.00 in0.0 mm 0.15 in3.8 mm
04:52 PM 70.4°F21.3°C 65.3°F18.5°C 84% Calm Calm 3.0 mph4.8 kmh 30.15 in1021.0 mb 0.00 in0.0 mm 0.00 in0.0 mm 0.15 in3.8 mm
04:57 PM 70.4°F21.3°C 65.7°F18.7°C 85% Calm Calm -- 30.15 in1021.0 mb 0.00 in0.0 mm 0.00 in0.0 mm 0.15 in3.8 mm
05:02 PM 70.4°F21.3°C 65.7°F18.7°C 85% Calm Calm -- 30.15 in1021.0 mb 0.00 in0.0 mm 0.00 in0.0 mm 0.15 in3.8 mm
05:07 PM 70.4°F21.3°C 65.7°F18.7°C 85% Calm Calm -- 30.15 in1021.0 mb 0.00 in0.0 mm 0.00 in0.0 mm 0.15 in3.8 mm
05:12 PM 70.4°F21.3°C 65.7°F18.7°C 85% Calm Calm -- 30.15 in1021.0 mb 0.00 in0.0 mm 0.00 in0.0 mm 0.15 in3.8 mm
05:17 PM 70.5°F21.4°C 65.8°F18.8°C 85% Calm Calm -- 30.15 in1021.0 mb 0.00 in0.0 mm 0.00 in0.0 mm 0.15 in3.8 mm
05:22 PM 70.5°F21.4°C 65.8°F18.8°C 85% Calm Calm -- 30.15 in1021.0 mb 0.00 in0.0 mm 0.00 in0.0 mm 0.15 in3.8 mm
05:27 PM 70.5°F21.4°C 65.8°F18.8°C 85% Calm Calm -- 30.14 in1020.7 mb 0.00 in0.0 mm 0.00 in0.0 mm 0.15 in3.8 mm
05:32 PM 70.4°F21.3°C 65.7°F18.7°C 85% Calm Calm -- 30.14 in1020.7 mb 0.00 in0.0 mm 0.00 in0.0 mm 0.15 in3.8 mm
05:37 PM 70.4°F21.3°C 65.7°F18.7°C 85% Calm Calm -- 30.15 in1021.0 mb 0.00 in0.0 mm 0.00 in0.0 mm 0.15 in3.8 mm
05:42 PM 70.4°F21.3°C 65.7°F18.7°C 85% Calm Calm -- 30.14 in1020.7 mb 0.00 in0.0 mm 0.00 in0.0 mm 0.15 in3.8 mm
05:47 PM 70.4°F21.3°C 65.7°F18.7°C 85% Calm Calm -- 30.14 in1020.7 mb 0.00 in0.0 mm 0.00 in0.0 mm 0.15 in3.8 mm
05:52 PM 70.4°F21.3°C 65.3°F18.5°C 84% Calm Calm 1.0 mph1.6 kmh 30.14 in1020.7 mb 0.00 in0.0 mm 0.00 in0.0 mm 0.15 in3.8 mm
05:57 PM 70.3°F21.3°C 65.2°F18.4°C 84% Calm Calm -- 30.14 in1020.7 mb 0.00 in0.0 mm 0.00 in0.0 mm 0.15 in3.8 mm
06:02 PM 70.3°F21.3°C 65.2°F18.4°C 84% Calm Calm -- 30.14 in1020.7 mb 0.00 in0.0 mm 0.00 in0.0 mm 0.15 in3.8 mm
06:07 PM 70.3°F21.3°C 65.2°F18.4°C 84% Calm Calm -- 30.15 in1021.0 mb 0.00 in0.0 mm 0.00 in0.0 mm 0.15 in3.8 mm
06:12 PM 70.3°F21.3°C 65.2°F18.4°C 84% Calm Calm -- 30.15 in1021.0 mb 0.00 in0.0 mm 0.00 in0.0 mm 0.15 in3.8 mm
06:17 PM 70.3°F21.3°C 65.2°F18.4°C 84% Calm Calm -- 30.15 in1021.0 mb 0.00 in0.0 mm 0.00 in0.0 mm 0.15 in3.8 mm
06:22 PM 70.2°F21.2°C 65.1°F18.4°C 84% Calm Calm 1.0 mph1.6 kmh 30.15 in1021.0 mb 0.00 in0.0 mm 0.00 in0.0 mm 0.15 in3.8 mm
06:27 PM 70.2°F21.2°C 64.8°F18.2°C 83% Calm Calm -- 30.15 in1021.0 mb 0.00 in0.0 mm 0.00 in0.0 mm 0.15 in3.8 mm
06:32 PM 70.2°F21.2°C 64.8°F18.2°C 83% Calm Calm -- 30.14 in1020.7 mb 0.00 in0.0 mm 0.00 in0.0 mm 0.15 in3.8 mm
06:37 PM 70.2°F21.2°C 64.8°F18.2°C 83% Calm Calm -- 30.14 in1020.7 mb 0.00 in0.0 mm 0.00 in0.0 mm 0.15 in3.8 mm
06:42 PM 70.2°F21.2°C 64.8°F18.2°C 83% Calm Calm -- 30.15 in1021.0 mb 0.00 in0.0 mm 0.00 in0.0 mm 0.15 in3.8 mm
06:47 PM 70.2°F21.2°C 64.8°F18.2°C 83% Calm Calm -- 30.14 in1020.7 mb 0.00 in0.0 mm 0.00 in0.0 mm 0.15 in3.8 mm
06:52 PM 70.2°F21.2°C 64.8°F18.2°C 83% Calm Calm -- 30.14 in1020.7 mb 0.00 in0.0 mm 0.00 in0.0 mm 0.15 in3.8 mm
06:57 PM 70.2°F21.2°C 64.8°F18.2°C 83% Calm Calm -- 30.15 in1021.0 mb 0.00 in0.0 mm 0.00 in0.0 mm 0.15 in3.8 mm
07:02 PM 70.2°F21.2°C 64.8°F18.2°C 83% Calm Calm 1.0 mph1.6 kmh 30.15 in1021.0 mb 0.00 in0.0 mm 0.00 in0.0 mm 0.15 in3.8 mm
07:07 PM 70.2°F21.2°C 64.4°F18.0°C 82% Calm Calm 3.0 mph4.8 kmh 30.15 in1021.0 mb 0.00 in0.0 mm 0.00 in0.0 mm 0.15 in3.8 mm
07:12 PM 70.3°F21.3°C 64.5°F18.1°C 82% Calm Calm -- 30.15 in1021.0 mb 0.00 in0.0 mm 0.00 in0.0 mm 0.15 in3.8 mm
07:17 PM 70.3°F21.3°C 64.5°F18.1°C 82% 1.0 mph S1.6 kmh S 7.0 mph11.3 kmh 30.15 in1021.0 mb 0.00 in0.0 mm 0.00 in0.0 mm 0.15 in3.8 mm
07:22 PM 70.2°F21.2°C 64.4°F18.0°C 82% Calm Calm 3.0 mph4.8 kmh 30.15 in1021.0 mb 0.00 in0.0 mm 0.00 in0.0 mm 0.15 in3.8 mm
07:27 PM 70.2°F21.2°C 64.4°F18.0°C 82% Calm Calm -- 30.15 in1021.0 mb 0.00 in0.0 mm 0.00 in0.0 mm 0.15 in3.8 mm
07:32 PM 70.2°F21.2°C 64.4°F18.0°C 82% Calm Calm -- 30.15 in1021.0 mb 0.00 in0.0 mm 0.00 in0.0 mm 0.15 in3.8 mm
07:37 PM 70.2°F21.2°C 64.1°F17.8°C 81% Calm Calm -- 30.15 in1021.0 mb 0.00 in0.0 mm 0.00 in0.0 mm 0.15 in3.8 mm
07:42 PM 70.2°F21.2°C 64.1°F17.8°C 81% Calm Calm -- 30.16 in1021.3 mb 0.00 in0.0 mm 0.00 in0.0 mm 0.15 in3.8 mm
07:47 PM 70.2°F21.2°C 64.1°F17.8°C 81% Calm Calm 3.0 mph4.8 kmh 30.16 in1021.3 mb 0.00 in0.0 mm 0.00 in0.0 mm 0.15 in3.8 mm
07:52 PM 70.2°F21.2°C 64.1°F17.8°C 81% Calm Calm 1.0 mph1.6 kmh 30.16 in1021.3 mb 0.00 in0.0 mm 0.00 in0.0 mm 0.15 in3.8 mm
07:57 PM 70.1°F21.2°C 64.0°F17.8°C 81% Calm Calm -- 30.15 in1021.0 mb 0.00 in0.0 mm 0.00 in0.0 mm 0.15 in3.8 mm
08:02 PM 70.1°F21.2°C 64.0°F17.8°C 81% Calm Calm -- 30.16 in1021.3 mb 0.00 in0.0 mm 0.00 in0.0 mm 0.15 in3.8 mm
08:07 PM 70.1°F21.2°C 64.0°F17.8°C 81% Calm Calm -- 30.16 in1021.3 mb 0.00 in0.0 mm 0.00 in0.0 mm 0.15 in3.8 mm
08:12 PM 70.0°F21.1°C 63.9°F17.7°C 81% Calm Calm -- 30.15 in1021.0 mb 0.00 in0.0 mm 0.00 in0.0 mm 0.15 in3.8 mm
08:17 PM 70.0°F21.1°C 63.9°F17.7°C 81% Calm Calm -- 30.15 in1021.0 mb 0.00 in0.0 mm 0.00 in0.0 mm 0.15 in3.8 mm
08:22 PM 70.0°F21.1°C 63.9°F17.7°C 81% Calm Calm -- 30.16 in1021.3 mb 0.00 in0.0 mm 0.00 in0.0 mm 0.15 in3.8 mm
08:27 PM 69.9°F21.1°C 63.8°F17.7°C 81% Calm Calm -- 30.16 in1021.3 mb 0.00 in0.0 mm 0.00 in0.0 mm 0.15 in3.8 mm
08:32 PM 69.9°F21.1°C 63.8°F17.7°C 81% Calm Calm -- 30.16 in1021.3 mb 0.00 in0.0 mm 0.00 in0.0 mm 0.15 in3.8 mm
08:37 PM 69.9°F21.1°C 63.8°F17.7°C 81% Calm Calm 2.0 mph3.2 kmh 30.16 in1021.3 mb 0.00 in0.0 mm 0.00 in0.0 mm 0.15 in3.8 mm
08:42 PM 69.9°F21.1°C 63.8°F17.7°C 81% Calm Calm 1.0 mph1.6 kmh 30.16 in1021.3 mb 0.00 in0.0 mm 0.00 in0.0 mm 0.15 in3.8 mm
08:47 PM 69.8°F21.0°C 63.3°F17.4°C 80% Calm Calm -- 30.16 in1021.3 mb 0.00 in0.0 mm 0.00 in0.0 mm 0.15 in3.8 mm
08:52 PM 69.8°F21.0°C 63.3°F17.4°C 80% Calm Calm -- 30.16 in1021.3 mb 0.00 in0.0 mm 0.00 in0.0 mm 0.15 in3.8 mm
08:57 PM 69.7°F20.9°C 63.2°F17.3°C 80% Calm Calm -- 30.16 in1021.3 mb 0.00 in0.0 mm 0.00 in0.0 mm 0.15 in3.8 mm
09:02 PM 69.7°F20.9°C 63.6°F17.6°C 81% Calm Calm 1.0 mph1.6 kmh 30.16 in1021.3 mb 0.00 in0.0 mm 0.00 in0.0 mm 0.16 in4.1 mm
09:07 PM 69.4°F20.8°C 63.3°F17.4°C 81% Calm Calm -- 30.16 in1021.3 mb 0.00 in0.0 mm 0.00 in0.0 mm 0.16 in4.1 mm
09:12 PM 69.1°F20.6°C 63.4°F17.4°C 82% Calm Calm -- 30.16 in1021.3 mb 0.00 in0.0 mm 0.00 in0.0 mm 0.16 in4.1 mm
09:17 PM 68.9°F20.5°C 63.2°F17.3°C 82% Calm Calm -- 30.16 in1021.3 mb 0.00 in0.0 mm 0.00 in0.0 mm 0.16 in4.1 mm
09:22 PM 68.6°F20.3°C 62.9°F17.2°C 82% Calm Calm 2.0 mph3.2 kmh 30.16 in1021.3 mb 0.00 in0.0 mm 0.00 in0.0 mm 0.16 in4.1 mm
09:27 PM 68.5°F20.3°C 62.8°F17.1°C 82% Calm Calm 3.0 mph4.8 kmh 30.16 in1021.3 mb 0.00 in0.0 mm 0.00 in0.0 mm 0.16 in4.1 mm
09:32 PM 68.4°F20.2°C 62.7°F17.1°C 82% Calm Calm -- 30.16 in1021.3 mb 0.00 in0.0 mm 0.00 in0.0 mm 0.16 in4.1 mm
09:37 PM 68.3°F20.2°C 62.9°F17.2°C 83% Calm Calm 2.0 mph3.2 kmh 30.17 in1021.7 mb 0.00 in0.0 mm 0.00 in0.0 mm 0.16 in4.1 mm
09:42 PM 68.2°F20.1°C 62.8°F17.1°C 83% Calm Calm -- 30.17 in1021.7 mb 0.00 in0.0 mm 0.00 in0.0 mm 0.16 in4.1 mm
09:47 PM 68.2°F20.1°C 62.8°F17.1°C 83% Calm Calm -- 30.17 in1021.7 mb 0.00 in0.0 mm 0.00 in0.0 mm 0.16 in4.1 mm
09:52 PM 68.2°F20.1°C 62.8°F17.1°C 83% Calm Calm -- 30.17 in1021.7 mb 0.00 in0.0 mm 0.00 in0.0 mm 0.16 in4.1 mm
09:57 PM 68.0°F20.0°C 62.6°F17.0°C 83% Calm Calm -- 30.17 in1021.7 mb 0.00 in0.0 mm 0.00 in0.0 mm 0.16 in4.1 mm
10:02 PM 67.9°F19.9°C 62.9°F17.2°C 84% Calm Calm 1.0 mph1.6 kmh 30.17 in1021.7 mb 0.00 in0.0 mm 0.00 in0.0 mm 0.16 in4.1 mm
10:07 PM 67.9°F19.9°C 62.9°F17.2°C 84% Calm Calm -- 30.17 in1021.7 mb 0.00 in0.0 mm 0.00 in0.0 mm 0.16 in4.1 mm
10:12 PM 67.9°F19.9°C 62.9°F17.2°C 84% Calm Calm -- 30.16 in1021.3 mb 0.00 in0.0 mm 0.00 in0.0 mm 0.16 in4.1 mm
10:17 PM 67.8°F19.9°C 63.1°F17.3°C 85% Calm Calm -- 30.17 in1021.7 mb 0.00 in0.0 mm 0.00 in0.0 mm 0.16 in4.1 mm
10:22 PM 67.8°F19.9°C 63.1°F17.3°C 85% Calm Calm -- 30.16 in1021.3 mb 0.00 in0.0 mm 0.00 in0.0 mm 0.16 in4.1 mm
10:27 PM 67.8°F19.9°C 63.1°F17.3°C 85% Calm Calm 1.0 mph1.6 kmh 30.16 in1021.3 mb 0.00 in0.0 mm 0.00 in0.0 mm 0.16 in4.1 mm
10:32 PM 67.8°F19.9°C 63.1°F17.3°C 85% Calm Calm 1.0 mph1.6 kmh 30.16 in1021.3 mb 0.00 in0.0 mm 0.00 in0.0 mm 0.16 in4.1 mm
10:37 PM 67.8°F19.9°C 63.1°F17.3°C 85% Calm Calm 3.0 mph4.8 kmh 30.16 in1021.3 mb 0.00 in0.0 mm 0.00 in0.0 mm 0.16 in4.1 mm
10:42 PM 67.8°F19.9°C 63.1°F17.3°C 85% Calm Calm 4.0 mph6.4 kmh 30.15 in1021.0 mb 0.00 in0.0 mm 0.00 in0.0 mm 0.16 in4.1 mm
10:47 PM 67.8°F19.9°C 63.1°F17.3°C 85% Calm Calm -- 30.15 in1021.0 mb 0.00 in0.0 mm 0.00 in0.0 mm 0.16 in4.1 mm
10:52 PM 67.7°F19.8°C 63.0°F17.2°C 85% Calm Calm 3.0 mph4.8 kmh 30.15 in1021.0 mb 0.00 in0.0 mm 0.00 in0.0 mm 0.16 in4.1 mm
10:57 PM 67.7°F19.8°C 62.7°F17.1°C 84% Calm Calm 4.0 mph6.4 kmh 30.15 in1021.0 mb 0.00 in0.0 mm 0.00 in0.0 mm 0.16 in4.1 mm
11:02 PM 67.8°F19.9°C 62.8°F17.1°C 84% Calm Calm -- 30.15 in1021.0 mb 0.00 in0.0 mm 0.00 in0.0 mm 0.41 in10.4 mm
11:07 PM 67.8°F19.9°C 62.8°F17.1°C 84% Calm Calm -- 30.15 in1021.0 mb 0.00 in0.0 mm 0.00 in0.0 mm 0.41 in10.4 mm
11:12 PM 67.8°F19.9°C 62.8°F17.1°C 84% Calm Calm 1.0 mph1.6 kmh 30.15 in1021.0 mb 0.00 in0.0 mm 0.00 in0.0 mm 0.41 in10.4 mm
11:17 PM 67.8°F19.9°C 62.8°F17.1°C 84% Calm Calm 1.0 mph1.6 kmh 30.15 in1021.0 mb 0.00 in0.0 mm 0.00 in0.0 mm 0.41 in10.4 mm
11:22 PM 67.8°F19.9°C 62.8°F17.1°C 84% 1.0 mph S1.6 kmh S 4.0 mph6.4 kmh 30.14 in1020.7 mb 0.00 in0.0 mm 0.00 in0.0 mm 0.41 in10.4 mm
11:27 PM 67.8°F19.9°C 62.8°F17.1°C 84% Calm Calm -- 30.14 in1020.7 mb 0.00 in0.0 mm 0.00 in0.0 mm 0.41 in10.4 mm
11:32 PM 67.9°F19.9°C 62.9°F17.2°C 84% 3.0 mph SSW4.8 kmh SSW 3.0 mph4.8 kmh 30.14 in1020.7 mb 0.00 in0.0 mm 0.00 in0.0 mm 0.41 in10.4 mm
11:37 PM 67.8°F19.9°C 62.8°F17.1°C 84% Calm Calm -- 30.14 in1020.7 mb 0.00 in0.0 mm 0.00 in0.0 mm 0.41 in10.4 mm
11:42 PM 67.8°F19.9°C 62.8°F17.1°C 84% Calm Calm -- 30.14 in1020.7 mb 0.00 in0.0 mm 0.00 in0.0 mm 0.41 in10.4 mm
11:47 PM 67.8°F19.9°C 62.8°F17.1°C 84% Calm Calm -- 30.14 in1020.7 mb 0.00 in0.0 mm 0.00 in0.0 mm 0.41 in10.4 mm
11:52 PM 67.7°F19.8°C 62.7°F17.1°C 84% Calm Calm 2.0 mph3.2 kmh 30.13 in1020.3 mb 0.00 in0.0 mm 0.00 in0.0 mm 0.41 in10.4 mm
11:57 PM 67.8°F19.9°C 62.8°F17.1°C 84% Calm Calm -- 30.13 in1020.3 mb 0.00 in0.0 mm 0.00 in0.0 mm 0.41 in10.4 mm